Time;durP1;ratioP1;P1;durP2;ratioP2;P2;SDS_P1;SDS_P2;PMS_P1;PMS_P2;Temp;Humidity;BMP_temperature;BMP_pressure;BME280_temperature;BME280_humidity;BME280_pressure;Samples;Min_cycle;Max_cycle;Signal;HPM_P1;HPM_P2
2022/10/01 00:02:16;;;;;;;13.00;2.60;;;11.90;99.90;;;;;;5005153;28;20014;-92
2022/10/01 00:04:42;;;;;;;7.38;1.83;;;11.90;99.90;;;;;;4998952;28;20039;-95
2022/10/01 00:07:13;;;;;;;8.48;1.88;;;11.90;99.90;;;;;;4994978;28;20087;-96
2022/10/01 00:09:50;;;;;;;11.68;2.10;;;11.90;99.90;;;;;;5006795;28;20018;-94
2022/10/01 00:29:05;;;;;;;10.30;2.20;;;11.80;99.90;;;;;;5079743;23;20050;-95
2022/10/01 00:31:39;;;;;;;6.50;1.33;;;11.70;99.90;;;;;;5033516;28;20032;-96
2022/10/01 00:34:05;;;;;;;11.35;1.70;;;11.70;99.90;;;;;;5020116;28;20033;-95
2022/10/01 00:36:31;;;;;;;11.25;1.45;;;11.70;99.90;;;;;;5018395;28;20061;-94
2022/10/01 00:39:01;;;;;;;10.70;1.70;;;11.70;99.90;;;;;;5022451;28;20034;-94
2022/10/01 00:41:33;;;;;;;13.27;1.53;;;11.70;99.90;;;;;;5023728;28;20044;-95
2022/10/01 00:44:01;;;;;;;13.88;1.65;;;11.60;99.90;;;;;;5007444;28;20014;-94
2022/10/01 00:46:44;;;;;;;9.52;1.33;;;11.70;99.90;;;;;;5024056;28;20053;-94
2022/10/01 00:49:18;;;;;;;14.95;2.28;;;11.60;99.90;;;;;;5004327;28;20042;-94
2022/10/01 00:51:52;;;;;;;12.80;1.88;;;11.60;99.90;;;;;;5018162;28;20074;-93
2022/10/01 00:54:26;;;;;;;9.57;1.92;;;11.60;99.90;;;;;;5020756;28;20022;-93
2022/10/01 00:56:54;;;;;;;9.20;1.85;;;11.70;99.90;;;;;;5018125;28;20049;-94
2022/10/01 00:59:23;;;;;;;6.28;1.20;;;11.60;99.90;;;;;;5017795;28;20037;-95
2022/10/01 01:01:51;;;;;;;11.98;2.05;;;11.70;99.90;;;;;;5022770;28;20021;-93
2022/10/01 01:04:17;;;;;;;12.27;1.50;;;11.70;99.90;;;;;;5017409;28;20021;-94
2022/10/01 01:06:56;;;;;;;7.03;1.50;;;11.70;99.90;;;;;;5006102;28;20045;-95
2022/10/01 01:09:26;;;;;;;16.30;1.92;;;11.70;99.90;;;;;;5017996;28;20046;-93
2022/10/01 01:12:28;;;;;;;11.20;1.40;;;11.70;99.90;;;;;;5021949;28;20014;-95
2022/10/01 01:15:13;;;;;;;3.03;0.90;;;11.70;99.90;;;;;;5006056;28;20274;-94
2022/10/01 01:17:46;;;;;;;8.13;1.13;;;11.60;99.90;;;;;;5005866;28;20068;-93
2022/10/01 01:20:24;;;;;;;11.45;2.10;;;11.70;99.90;;;;;;5032389;28;20081;-94
2022/10/01 01:30:07;;;;;;;13.00;1.88;;;11.70;99.90;;;;;;6048631;23;20044;-92
2022/10/01 01:33:03;;;;;;;9.82;2.20;;;11.70;99.90;;;;;;5014762;28;20046;-96
2022/10/01 01:35:34;;;;;;;15.63;2.67;;;11.70;99.90;;;;;;5030006;28;20038;-96
2022/10/01 01:38:02;;;;;;;;;;;11.70;99.90;;;;;;5019177;28;20033;-96
2022/10/01 01:40:30;;;;;;;11.88;1.70;;;11.70;99.90;;;;;;5047373;28;19909;-94
2022/10/01 01:43:04;;;;;;;15.43;1.67;;;11.70;99.90;;;;;;5032115;28;20030;-96
2022/10/01 01:45:39;;;;;;;15.52;2.30;;;11.70;99.90;;;;;;5032040;28;20027;-95
2022/10/01 01:48:12;;;;;;;15.38;3.00;;;11.70;99.90;;;;;;5019630;28;20034;-95
2022/10/01 01:50:45;;;;;;;11.77;1.70;;;11.70;99.90;;;;;;5026748;28;20036;-95
2022/10/01 01:53:14;;;;;;;13.02;2.67;;;11.70;99.90;;;;;;5044254;28;20045;-95
2022/10/01 01:55:48;;;;;;;13.98;2.25;;;11.70;99.90;;;;;;5043635;28;20018;-96
2022/10/01 01:58:15;;;;;;;15.30;2.03;;;11.70;99.90;;;;;;5030084;28;20038;-94
2022/10/01 02:00:41;;;;;;;8.50;1.55;;;11.70;99.90;;;;;;5029611;28;20102;-93
2022/10/01 02:03:08;;;;;;;7.28;1.50;;;11.70;99.90;;;;;;5039364;28;20034;-91
2022/10/01 02:05:42;;;;;;;15.85;3.00;;;11.70;99.90;;;;;;5031982;28;20033;-95
2022/10/01 02:08:36;;;;;;;7.05;1.55;;;11.70;99.90;;;;;;5032394;28;20018;-95
2022/10/01 02:11:14;;;;;;;15.82;2.35;;;11.70;99.90;;;;;;5027905;28;20038;-95
2022/10/01 02:14:08;;;;;;;16.27;2.40;;;11.70;99.90;;;;;;5026716;28;20033;-94
2022/10/01 02:17:12;;;;;;;18.70;3.28;;;11.70;99.90;;;;;;5015049;28;20031;-94
2022/10/01 02:19:58;;;;;;;11.45;1.88;;;11.80;99.90;;;;;;5034097;28;20089;-96
2022/10/01 02:23:05;;;;;;;17.88;1.92;;;11.80;99.90;;;;;;5019778;28;20029;-95
2022/10/01 02:25:42;;;;;;;16.45;2.92;;;11.80;99.90;;;;;;5016695;28;20046;-96
2022/10/01 02:28:15;;;;;;;18.60;2.10;;;11.70;99.90;;;;;;5032447;28;20121;-94
2022/10/01 02:30:45;;;;;;;14.55;2.10;;;11.80;99.90;;;;;;5031204;28;20480;-95
2022/10/01 02:33:20;;;;;;;10.57;2.03;;;11.70;99.90;;;;;;5048209;28;20039;-94
2022/10/01 02:35:51;;;;;;;15.82;2.05;;;11.70;99.90;;;;;;5031535;28;20101;-96
2022/10/01 02:38:19;;;;;;;;;;;11.70;99.90;;;;;;5037246;28;20014;-92
2022/10/01 02:40:47;;;;;;;9.75;1.98;;;11.70;99.90;;;;;;5036978;28;19897;-91
2022/10/01 02:43:33;;;;;;;16.23;2.22;;;11.70;99.90;;;;;;5037106;28;20045;-91
2022/10/01 02:46:21;;;;;;;27.65;3.25;;;11.70;99.90;;;;;;5035291;28;20030;-93
2022/10/01 02:48:47;;;;;;;12.90;2.35;;;11.70;99.90;;;;;;5046684;28;20022;-92
2022/10/01 02:51:28;;;;;;;13.38;2.22;;;11.70;99.90;;;;;;5025753;28;20049;-91
2022/10/01 02:54:08;;;;;;;17.40;3.72;;;11.70;99.90;;;;;;5030454;28;20030;-93
2022/10/01 02:59:21;;;;;;;14.57;2.70;;;11.70;99.90;;;;;;5030586;28;20069;-94
2022/10/01 03:01:47;;;;;;;15.20;2.70;;;11.60;99.90;;;;;;5024092;28;20025;-92
2022/10/01 03:04:12;;;;;;;22.95;2.85;;;11.60;99.90;;;;;;5031322;28;20097;-93
2022/10/01 03:06:38;;;;;;;19.92;2.85;;;11.60;99.90;;;;;;5022361;28;20048;-90
2022/10/01 03:09:07;;;;;;;19.15;3.60;;;11.60;99.90;;;;;;5024753;28;20042;-92
2022/10/01 03:11:33;;;;;;;17.67;2.47;;;11.60;99.90;;;;;;5035545;28;20033;-93
2022/10/01 03:14:00;;;;;;;13.80;2.47;;;11.60;99.90;;;;;;5023724;28;20065;-94
2022/10/01 03:16:28;;;;;;;19.83;3.10;;;11.60;99.90;;;;;;5027206;28;20045;-90
2022/10/01 03:18:56;;;;;;;23.23;5.45;;;11.60;99.90;;;;;;5024156;28;20160;-93
2022/10/01 03:21:22;;;;;;;15.27;2.20;;;11.60;99.90;;;;;;5025505;28;20010;-93
2022/10/01 03:23:47;;;;;;;18.77;2.58;;;11.60;99.90;;;;;;5025927;28;20084;-91
2022/10/01 03:26:13;;;;;;;14.63;3.03;;;11.60;99.90;;;;;;5024114;28;20034;-93
2022/10/01 03:28:40;;;;;;;14.35;2.08;;;11.60;99.90;;;;;;5017932;28;20113;-93
2022/10/01 03:31:10;;;;;;;12.00;3.42;;;11.60;99.90;;;;;;5014920;28;20080;-96
2022/10/01 03:33:36;;;;;;;16.00;2.42;;;11.60;99.90;;;;;;5017868;28;20030;-93
2022/10/01 03:36:03;;;;;;;12.80;2.00;;;11.50;99.90;;;;;;5014094;28;20042;-94
2022/10/01 03:38:29;;;;;;;17.42;3.35;;;11.50;99.90;;;;;;5013882;28;20014;-93
2022/10/01 03:40:55;;;;;;;14.13;2.38;;;11.60;99.90;;;;;;5016524;28;20126;-94
2022/10/01 03:43:21;;;;;;;20.17;2.35;;;11.60;99.90;;;;;;5015341;28;20022;-93
2022/10/01 03:45:47;;;;;;;17.13;2.15;;;11.50;99.90;;;;;;5014325;28;20026;-96
2022/10/01 03:48:13;;;;;;;18.73;2.38;;;11.60;99.90;;;;;;5003725;28;20123;-96
2022/10/01 03:50:38;;;;;;;20.92;2.97;;;11.50;99.90;;;;;;5006523;28;20038;-96
2022/10/01 03:53:05;;;;;;;9.50;2.03;;;11.50;99.90;;;;;;5005782;28;20019;-94
2022/10/01 03:55:31;;;;;;;24.33;3.22;;;11.50;99.90;;;;;;5004795;28;20026;-95
2022/10/01 03:57:57;;;;;;;19.67;2.38;;;11.50;99.90;;;;;;5027572;28;20069;-95
2022/10/01 04:00:24;;;;;;;18.42;2.72;;;11.50;99.90;;;;;;5012997;28;20026;-92
2022/10/01 04:02:50;;;;;;;21.45;2.97;;;11.50;99.90;;;;;;5009459;28;20027;-93
2022/10/01 04:05:17;;;;;;;15.18;3.28;;;11.40;99.90;;;;;;5012502;28;20030;-93
2022/10/01 04:07:42;;;;;;;17.77;2.30;;;11.40;99.90;;;;;;5016535;28;20034;-92
2022/10/01 04:10:08;;;;;;;13.82;2.30;;;11.50;99.90;;;;;;5016590;28;20038;-92
2022/10/01 04:12:35;;;;;;;19.50;3.20;;;11.50;99.90;;;;;;5017314;28;20026;-94
2022/10/01 04:15:01;;;;;;;11.43;2.58;;;11.40;99.90;;;;;;5012981;28;20031;-92
2022/10/01 04:17:27;;;;;;;16.67;2.75;;;11.40;99.90;;;;;;5015379;28;20069;-96
2022/10/01 04:19:52;;;;;;;17.02;2.03;;;11.40;99.90;;;;;;5013369;28;20037;-95
2022/10/01 04:22:18;;;;;;;22.65;3.65;;;11.40;99.90;;;;;;5005586;28;20027;-93
2022/10/01 04:24:44;;;;;;;20.60;2.47;;;11.40;99.90;;;;;;5009579;28;20049;-94
2022/10/01 04:27:10;;;;;;;24.27;3.00;;;11.30;99.90;;;;;;5006970;28;20056;-95
2022/10/01 04:29:35;;;;;;;20.98;2.70;;;11.30;99.90;;;;;;5006176;28;20026;-93
2022/10/01 04:32:02;;;;;;;15.73;2.85;;;11.30;99.90;;;;;;5002527;28;20057;-94
2022/10/01 04:37:14;;;;;;;14.40;2.88;;;11.30;99.90;;;;;;5008817;28;20057;-95
2022/10/01 04:39:40;;;;;;;25.25;3.28;;;11.30;99.90;;;;;;5016797;28;20018;-93
2022/10/01 04:42:06;;;;;;;22.63;4.68;;;11.30;99.90;;;;;;5012779;28;20018;-95
2022/10/01 04:44:31;;;;;;;18.45;2.65;;;11.30;99.90;;;;;;5004363;28;20054;-95
2022/10/01 04:46:57;;;;;;;17.90;2.58;;;11.30;99.90;;;;;;5018713;28;20021;-93
2022/10/01 04:49:24;;;;;;;17.08;3.25;;;11.30;99.90;;;;;;5020383;28;20061;-93
2022/10/01 04:51:50;;;;;;;13.82;2.28;;;11.30;99.90;;;;;;5017157;28;20034;-95
2022/10/01 04:54:16;;;;;;;16.40;3.03;;;11.20;99.90;;;;;;5020619;28;20014;-95
2022/10/01 04:56:41;;;;;;;24.60;2.10;;;11.30;99.90;;;;;;5019461;28;20050;-94
2022/10/01 04:59:10;;;;;;;14.48;1.70;;;11.30;99.90;;;;;;5017889;28;20037;-95
2022/10/01 05:01:35;;;;;;;11.30;1.95;;;11.30;99.90;;;;;;5020279;28;20022;-92
2022/10/01 05:04:03;;;;;;;15.63;2.42;;;11.30;99.90;;;;;;5020810;28;20045;-92
2022/10/01 05:06:29;;;;;;;16.75;2.17;;;11.30;99.90;;;;;;5021025;28;20029;-96
2022/10/01 05:08:56;;;;;;;13.18;2.72;;;11.30;99.90;;;;;;5017531;28;20015;-96
2022/10/01 05:11:22;;;;;;;14.15;1.95;;;11.20;99.90;;;;;;5010469;28;20031;-95
2022/10/01 05:13:47;;;;;;;16.65;2.92;;;11.20;99.90;;;;;;5001233;28;20023;-95
2022/10/01 05:16:13;;;;;;;8.02;2.13;;;11.20;99.90;;;;;;5001515;28;20043;-94
2022/10/01 05:18:39;;;;;;;10.00;1.75;;;11.20;99.90;;;;;;5001494;28;20033;-96
2022/10/01 05:21:06;;;;;;;13.52;2.03;;;11.20;99.90;;;;;;5009333;28;20105;-96
2022/10/01 05:23:32;;;;;;;14.90;3.15;;;11.20;99.90;;;;;;5015912;28;20030;-95
2022/10/01 05:25:59;;;;;;;17.83;1.90;;;11.20;99.90;;;;;;5000918;28;20463;-96
2022/10/01 05:28:26;;;;;;;14.65;2.00;;;11.20;99.90;;;;;;4998285;28;20073;-95
2022/10/01 05:30:52;;;;;;;16.42;2.58;;;11.20;99.90;;;;;;5001126;28;20169;-95
2022/10/01 05:33:19;;;;;;;20.42;2.60;;;11.10;99.90;;;;;;5006070;28;20292;-95
2022/10/01 05:35:45;;;;;;;13.52;2.35;;;11.10;99.90;;;;;;5008578;28;20133;-95
2022/10/01 05:38:10;;;;;;;12.68;2.25;;;11.10;99.90;;;;;;5011030;28;20038;-96
2022/10/01 05:40:36;;;;;;;18.85;2.00;;;11.10;99.90;;;;;;5012600;28;20022;-95
2022/10/01 05:43:03;;;;;;;15.48;1.92;;;11.10;99.90;;;;;;5010207;28;20812;-95
2022/10/01 05:45:30;;;;;;;11.30;1.60;;;11.10;99.90;;;;;;5015662;28;20057;-96
2022/10/01 05:48:01;;;;;;;14.88;2.50;;;11.10;99.90;;;;;;5016700;28;20026;-96
2022/10/01 05:50:32;;;;;;;10.35;1.60;;;11.10;99.90;;;;;;5010646;28;20015;-95
2022/10/01 05:52:58;;;;;;;;;;;11.10;99.90;;;;;;5008574;28;20094;-94
2022/10/01 05:55:25;;;;;;;18.80;2.13;;;11.20;99.90;;;;;;5012416;28;19894;-96
2022/10/01 05:57:58;;;;;;;14.75;2.38;;;11.20;99.90;;;;;;5021791;28;20050;-95
2022/10/01 06:00:27;;;;;;;11.93;1.80;;;11.20;99.90;;;;;;5006685;28;20034;-95
2022/10/01 06:02:54;;;;;;;13.32;1.90;;;11.20;99.90;;;;;;4999549;28;20037;-94
2022/10/01 06:05:23;;;;;;;13.15;1.85;;;11.10;99.90;;;;;;5015712;28;20049;-95
2022/10/01 06:07:50;;;;;;;17.45;2.15;;;11.10;99.90;;;;;;4999704;28;20031;-95
2022/10/01 06:10:18;;;;;;;12.85;1.98;;;11.10;99.90;;;;;;5005223;28;20021;-96
2022/10/01 06:12:44;;;;;;;16.75;2.90;;;11.10;99.90;;;;;;5013915;28;20044;-94
2022/10/01 06:15:11;;;;;;;10.70;1.52;;;11.10;99.90;;;;;;5014198;28;20038;-94
2022/10/01 06:17:43;;;;;;;14.45;2.08;;;11.10;99.90;;;;;;5006250;28;20042;-96
2022/10/01 06:20:14;;;;;;;18.35;2.72;;;11.10;99.90;;;;;;5018474;28;20054;-94
2022/10/01 06:22:42;;;;;;;16.20;2.47;;;11.00;99.90;;;;;;5004094;28;20030;-96
2022/10/01 06:25:10;;;;;;;14.23;2.45;;;11.00;99.90;;;;;;5010948;28;20019;-94
2022/10/01 06:27:36;;;;;;;15.25;2.63;;;11.00;99.90;;;;;;5015593;28;20042;-94
2022/10/01 06:30:04;;;;;;;15.18;2.50;;;11.00;99.90;;;;;;5034432;28;20085;-93
2022/10/01 06:32:30;;;;;;;19.67;1.70;;;11.00;99.90;;;;;;5004711;28;20085;-95
2022/10/01 06:34:55;;;;;;;14.68;2.03;;;11.00;99.90;;;;;;5011525;28;20098;-94
2022/10/01 06:37:21;;;;;;;16.73;1.95;;;11.00;99.90;;;;;;5012630;28;20050;-95
2022/10/01 06:39:47;;;;;;;20.13;2.58;;;11.00;99.90;;;;;;5009029;28;20026;-95
2022/10/01 06:42:12;;;;;;;11.57;2.10;;;11.00;99.90;;;;;;5011105;28;20045;-95
2022/10/01 06:44:38;;;;;;;12.18;1.42;;;11.00;99.90;;;;;;5009117;28;20023;-96
2022/10/01 06:47:04;;;;;;;14.60;2.85;;;11.00;99.90;;;;;;5009967;28;20030;-96
2022/10/01 06:49:29;;;;;;;17.60;2.10;;;11.10;99.90;;;;;;5006961;28;20082;-95
2022/10/01 06:54:39;;;;;;;13.77;2.35;;;11.10;99.90;;;;;;5009008;28;20056;-95
2022/10/01 06:57:06;;;;;;;19.42;2.88;;;11.10;99.90;;;;;;5006993;28;20062;-96
2022/10/01 06:59:35;;;;;;;11.85;2.00;;;11.10;99.90;;;;;;5011859;28;20027;-95
2022/10/01 07:02:01;;;;;;;16.40;2.10;;;11.10;99.90;;;;;;5009106;28;20031;-95
2022/10/01 07:04:27;;;;;;;16.10;2.53;;;11.10;99.90;;;;;;5009433;28;20475;-95
2022/10/01 07:06:54;;;;;;;13.63;2.30;;;11.10;99.90;;;;;;5006229;28;20030;-91
2022/10/01 07:09:24;;;;;;;14.48;2.55;;;11.20;99.90;;;;;;5005988;28;20069;-94
2022/10/01 07:11:49;;;;;;;12.55;2.03;;;11.20;99.90;;;;;;5008375;28;20018;-94
2022/10/01 07:14:15;;;;;;;15.27;2.20;;;11.20;99.90;;;;;;5015661;28;20049;-93
2022/10/01 07:16:41;;;;;;;16.70;2.50;;;11.20;99.90;;;;;;5015834;28;20069;-95
2022/10/01 07:19:08;;;;;;;7.20;1.75;;;11.30;99.90;;;;;;5015285;28;20051;-95
2022/10/01 07:21:33;;;;;;;20.00;4.00;;;11.30;99.90;;;;;;5011912;28;20031;-96
2022/10/01 07:23:59;;;;;;;15.85;2.10;;;11.30;99.90;;;;;;5005678;28;20034;-95
2022/10/01 07:26:25;;;;;;;16.50;2.38;;;11.30;99.90;;;;;;5001281;28;20057;-94
2022/10/01 07:28:51;;;;;;;19.55;3.15;;;11.40;99.90;;;;;;5003720;28;20096;-94
2022/10/01 07:31:17;;;;;;;16.02;2.00;;;11.40;99.90;;;;;;4998773;28;20480;-93
2022/10/01 07:33:43;;;;;;;11.88;2.00;;;11.40;99.90;;;;;;4998185;28;20038;-95
2022/10/01 07:36:10;;;;;;;11.70;2.80;;;11.50;99.90;;;;;;5007286;28;20134;-96
2022/10/01 07:38:36;;;;;;;10.60;2.25;;;11.50;99.90;;;;;;5006308;28;20054;-94
2022/10/01 07:41:02;;;;;;;18.10;3.88;;;11.50;99.90;;;;;;5009473;28;20089;-96
2022/10/01 07:43:33;;;;;;;14.07;1.85;;;11.50;99.90;;;;;;5005829;28;20057;-95
2022/10/01 07:46:00;;;;;;;15.43;2.55;;;11.60;99.90;;;;;;5009859;28;20093;-94
2022/10/01 07:48:26;;;;;;;12.10;2.50;;;11.60;99.90;;;;;;5006596;28;20030;-94
2022/10/01 07:50:52;;;;;;;14.55;2.60;;;11.60;99.90;;;;;;5000969;28;20372;-94
2022/10/01 07:53:18;;;;;;;18.92;2.80;;;11.70;99.90;;;;;;5002780;28;20030;-94
2022/10/01 07:55:44;;;;;;;15.73;2.25;;;11.70;99.90;;;;;;4996114;28;20480;-94
2022/10/01 07:58:11;;;;;;;11.07;1.92;;;11.80;99.90;;;;;;4997297;28;20419;-95
2022/10/01 08:00:38;;;;;;;16.00;2.20;;;11.90;99.90;;;;;;4999429;28;20022;-93
2022/10/01 08:03:04;;;;;;;11.27;1.70;;;12.00;99.90;;;;;;4994974;28;20075;-94
2022/10/01 08:05:32;;;;;;;18.38;2.30;;;12.10;99.90;;;;;;4999017;28;20058;-94
2022/10/01 08:08:00;;;;;;;13.90;1.77;;;12.10;99.90;;;;;;5000539;28;20046;-94
2022/10/01 08:10:25;;;;;;;16.48;2.33;;;12.20;99.90;;;;;;5000789;28;20023;-96
2022/10/01 08:12:51;;;;;;;20.10;2.10;;;12.30;99.90;;;;;;5004062;28;20041;-93
2022/10/01 08:15:17;;;;;;;10.50;2.47;;;12.30;99.90;;;;;;5001491;28;20027;-95
2022/10/01 08:17:44;;;;;;;12.73;1.88;;;12.40;99.90;;;;;;5007160;28;20042;-95
2022/10/01 08:20:12;;;;;;;17.73;2.33;;;12.50;99.90;;;;;;5007958;28;20029;-95
2022/10/01 08:22:39;;;;;;;14.10;2.38;;;12.50;99.90;;;;;;5004846;28;20038;-95
2022/10/01 08:25:05;;;;;;;11.88;1.98;;;12.60;99.90;;;;;;5012496;28;20023;-94
2022/10/01 08:27:31;;;;;;;16.27;2.92;;;12.60;99.90;;;;;;4993394;28;20103;-95
2022/10/01 08:29:57;;;;;;;14.52;2.50;;;12.70;99.90;;;;;;4993982;28;20022;-95
2022/10/01 08:32:24;;;;;;;14.52;2.13;;;12.80;99.90;;;;;;5001371;28;20051;-93
2022/10/01 08:34:53;;;;;;;10.00;1.80;;;12.80;99.90;;;;;;5013967;28;20057;-95
2022/10/01 08:37:19;;;;;;;15.80;1.95;;;12.80;99.90;;;;;;5014747;28;20041;-93
2022/10/01 08:39:46;;;;;;;14.98;2.10;;;12.90;99.90;;;;;;5007424;28;20479;-94
2022/10/01 08:42:41;;;;;;;9.77;1.60;;;12.90;99.90;;;;;;5006418;28;20035;-96
2022/10/01 08:45:43;;;;;;;7.57;1.58;;;12.90;99.90;;;;;;5010183;28;20026;-94
2022/10/01 08:48:24;;;;;;;12.60;1.98;;;13.00;99.90;;;;;;5014301;28;20081;-95
2022/10/01 08:51:03;;;;;;;16.88;2.70;;;13.00;99.90;;;;;;5016079;28;20025;-94
2022/10/01 08:53:38;;;;;;;9.25;1.60;;;13.00;99.90;;;;;;5014191;28;20080;-91
2022/10/01 08:56:06;;;;;;;19.13;2.65;;;13.00;99.90;;;;;;5013123;28;20029;-93
2022/10/01 08:58:41;;;;;;;11.25;2.00;;;13.10;99.90;;;;;;5016819;28;20037;-94
2022/10/01 09:01:09;;;;;;;12.70;1.92;;;13.20;99.90;;;;;;5029675;28;20095;-94
2022/10/01 09:03:36;;;;;;;12.82;1.95;;;13.20;99.90;;;;;;5029498;28;20042;-94
2022/10/01 09:06:31;;;;;;;10.20;2.17;;;13.30;99.90;;;;;;5029611;28;20041;-94
2022/10/01 09:09:25;;;;;;;5.28;1.27;;;13.40;99.90;;;;;;5010304;28;20042;-95
2022/10/01 09:12:21;;;;;;;17.08;2.72;;;13.50;99.90;;;;;;5036941;28;20018;-92
2022/10/01 09:15:06;;;;;;;14.02;1.85;;;13.60;99.90;;;;;;5032866;28;20109;-94
2022/10/01 09:17:39;;;;;;;19.20;1.75;;;13.60;99.90;;;;;;5053878;28;20097;-94
2022/10/01 09:20:20;;;;;;;13.38;1.95;;;13.70;99.90;;;;;;5040026;28;20345;-95
2022/10/01 09:23:07;;;;;;;10.18;1.58;;;13.80;99.90;;;;;;5022935;28;20053;-95
2022/10/01 09:25:35;;;;;;;14.52;1.80;;;13.90;99.90;;;;;;5031822;28;20064;-95
2022/10/01 09:28:14;;;;;;;14.63;3.30;;;13.90;99.90;;;;;;5020405;28;20061;-94
2022/10/01 09:30:46;;;;;;;16.65;3.10;;;14.10;99.90;;;;;;5015204;28;20015;-94
2022/10/01 09:33:17;;;;;;;11.48;1.83;;;14.10;99.90;;;;;;5014067;28;20042;-96
2022/10/01 09:35:44;;;;;;;16.15;2.50;;;14.30;99.90;;;;;;5018972;28;20027;-96
2022/10/01 09:38:39;;;;;;;7.03;1.80;;;14.40;99.90;;;;;;5009912;28;20034;-93
2022/10/01 09:41:07;;;;;;;15.20;2.90;;;14.60;99.90;;;;;;5027379;28;20117;-96
2022/10/01 09:43:36;;;;;;;13.63;1.92;;;14.70;99.90;;;;;;5007943;28;20025;-94
2022/10/01 09:46:11;;;;;;;13.75;1.75;;;14.90;99.90;;;;;;5010101;28;20033;-93
2022/10/01 09:48:52;;;;;;;14.15;2.50;;;15.00;99.90;;;;;;5008527;28;20037;-94
2022/10/01 09:51:37;;;;;;;11.43;2.10;;;15.10;99.90;;;;;;5030779;28;20036;-93
2022/10/01 09:54:28;;;;;;;12.38;2.28;;;15.10;99.90;;;;;;5023047;28;20022;-94
2022/10/01 09:57:30;;;;;;;15.50;2.10;;;15.20;99.90;;;;;;5026806;28;20040;-95
2022/10/01 10:00:24;;;;;;;9.75;2.00;;;15.20;99.90;;;;;;5028344;28;20030;-95
2022/10/01 10:02:51;;;;;;;12.70;1.90;;;15.10;99.90;;;;;;5008200;28;20033;-95
2022/10/01 10:05:28;;;;;;;9.70;1.23;;;15.10;99.90;;;;;;5026896;28;20018;-96
2022/10/01 10:11:24;;;;;;;7.53;1.13;;;15.00;99.90;;;;;;5084453;23;20423;-96
2022/10/01 10:13:57;;;;;;;12.02;2.10;;;15.00;99.90;;;;;;5017975;28;20025;-94
2022/10/01 10:16:36;;;;;;;11.98;1.85;;;15.00;99.90;;;;;;5024408;28;20048;-94
2022/10/01 10:19:25;;;;;;;15.52;2.25;;;15.10;99.90;;;;;;5033723;28;20030;-94
2022/10/01 10:21:54;;;;;;;11.50;1.73;;;15.20;99.90;;;;;;5013383;28;20029;-93
2022/10/01 10:24:25;;;;;;;9.35;1.90;;;15.30;99.90;;;;;;5013321;28;20041;-93
2022/10/01 10:27:02;;;;;;;6.97;1.38;;;15.40;99.90;;;;;;5013542;28;20036;-92
2022/10/01 10:29:34;;;;;;;11.15;1.77;;;15.40;99.90;;;;;;5016774;28;20025;-94
2022/10/01 10:32:27;;;;;;;9.50;1.92;;;15.40;99.90;;;;;;5017750;28;20037;-91
2022/10/01 10:35:02;;;;;;;6.85;1.83;;;15.50;99.90;;;;;;5023200;28;20056;-92
2022/10/01 10:37:35;;;;;;;6.80;2.10;;;15.60;99.90;;;;;;5023808;28;20037;-93
2022/10/01 10:40:05;;;;;;;8.50;1.42;;;15.60;99.90;;;;;;5026931;28;20025;-96
2022/10/01 10:42:37;;;;;;;7.60;1.60;;;15.80;99.90;;;;;;5021320;28;20092;-92
2022/10/01 10:45:14;;;;;;;10.10;1.58;;;16.00;99.90;;;;;;5016111;28;20054;-94
2022/10/01 10:47:45;;;;;;;7.47;1.17;;;16.10;99.90;;;;;;5020751;28;20030;-93
2022/10/01 10:50:30;;;;;;;9.73;1.50;;;16.00;99.90;;;;;;5017149;28;20042;-93
2022/10/01 10:52:57;;;;;;;6.78;1.40;;;16.00;99.90;;;;;;5020321;28;20021;-94
2022/10/01 10:55:30;;;;;;;8.50;1.42;;;15.80;99.90;;;;;;5021465;28;20034;-94
2022/10/01 10:58:13;;;;;;;8.18;1.27;;;15.80;99.90;;;;;;5020921;28;20041;-95
2022/10/01 11:00:46;;;;;;;8.48;1.38;;;15.80;99.90;;;;;;5021527;28;20029;-94
2022/10/01 11:03:15;;;;;;;7.72;2.10;;;15.80;99.90;;;;;;5020570;28;20022;-93
2022/10/01 11:05:42;;;;;;;7.00;1.50;;;15.80;99.90;;;;;;5020797;28;20026;-94
2022/10/01 11:08:20;;;;;;;13.95;1.95;;;15.70;99.90;;;;;;5021762;28;20044;-93
2022/10/01 11:11:16;;;;;;;7.88;1.50;;;15.70;99.90;;;;;;5036395;28;20053;-94
2022/10/01 11:14:02;;;;;;;10.15;2.20;;;15.90;99.90;;;;;;5032522;28;20026;-95
2022/10/01 11:16:41;;;;;;;4.80;1.30;;;16.20;99.90;;;;;;5036643;28;20049;-94
2022/10/01 11:19:10;;;;;;;11.52;1.70;;;16.50;98.50;;;;;;5035181;28;20017;-94
2022/10/01 11:21:57;;;;;;;10.88;2.45;;;16.80;97.30;;;;;;5035518;28;20033;-94
2022/10/01 11:24:41;;;;;;;7.00;1.15;;;17.30;97.30;;;;;;5051681;28;20085;-95
2022/10/01 11:27:35;;;;;;;9.57;1.30;;;17.60;96.10;;;;;;5030233;28;20018;-96
2022/10/01 11:30:01;;;;;;;9.20;1.33;;;17.90;95.30;;;;;;5031979;28;20033;-94
2022/10/01 11:33:02;;;;;;;5.47;1.45;;;18.20;92.00;;;;;;5036250;28;20041;-93
2022/10/01 11:35:41;;;;;;;7.63;1.52;;;18.60;91.80;;;;;;4995664;28;20045;-93
2022/10/01 11:38:40;;;;;;;8.73;1.60;;;18.60;90.10;;;;;;4981524;28;20046;-93
2022/10/01 11:41:22;;;;;;;7.25;1.38;;;18.40;87.50;;;;;;4981138;28;20050;-94
2022/10/01 11:43:48;;;;;;;6.85;1.15;;;18.10;87.50;;;;;;4980962;28;20034;-93
2022/10/01 11:46:28;;;;;;;10.48;1.88;;;17.80;87.80;;;;;;4981144;28;20023;-93
2022/10/01 11:49:18;;;;;;;4.82;1.33;;;17.70;89.40;;;;;;4990182;28;20035;-93
2022/10/01 11:51:50;;;;;;;7.20;1.85;;;17.80;90.30;;;;;;4988930;28;20077;-92
2022/10/01 11:54:25;;;;;;;9.00;1.10;;;18.10;89.40;;;;;;4980438;28;20018;-91
2022/10/01 12:00:00;;;;;;;5.93;1.75;;;18.80;85.40;;;;;;4987398;28;20059;-92
2022/10/01 12:02:45;;;;;;;6.13;1.20;;;19.00;84.70;;;;;;4977046;28;20049;-93
2022/10/01 12:05:41;;;;;;;6.13;1.75;;;19.20;83.70;;;;;;4979050;28;20031;-94
2022/10/01 12:08:30;;;;;;;13.10;1.65;;;19.20;83.00;;;;;;4977920;28;20035;-94
2022/10/01 12:11:20;;;;;;;6.97;1.10;;;19.30;82.30;;;;;;4983529;28;20094;-94
2022/10/01 12:14:00;;;;;;;5.65;1.10;;;19.60;82.30;;;;;;5013882;28;20026;-93
2022/10/01 12:16:51;;;;;;;6.18;1.55;;;20.10;81.60;;;;;;5017748;28;20053;-95
2022/10/01 12:19:24;;;;;;;;;;;20.40;77.80;;;;;;5000908;28;20034;-94
2022/10/01 12:22:11;;;;;;;3.20;1.13;;;20.50;76.40;;;;;;5010566;28;19910;-93
2022/10/01 12:24:43;;;;;;;6.95;1.13;;;20.70;76.10;;;;;;5016326;28;20034;-93
2022/10/01 12:27:40;;;;;;;5.78;0.82;;;21.00;74.70;;;;;;5017818;28;20013;-93
2022/10/01 12:30:30;;;;;;;6.72;1.27;;;21.00;73.10;;;;;;5015488;28;20033;-94
2022/10/01 12:33:55;;;;;;;10.15;1.25;;;20.70;72.90;;;;;;5016285;28;20026;-96
2022/10/01 12:37:04;;;;;;;9.75;1.58;;;20.30;73.80;;;;;;5003348;28;20050;-94
2022/10/01 12:40:16;;;;;;;7.57;1.52;;;19.70;74.20;;;;;;5013899;28;20034;-95
2022/10/01 12:48:31;;;;;;;6.53;1.20;;;18.40;78.30;;;;;;5778102;23;20190;-92
2022/10/01 12:51:11;;;;;;;6.82;1.02;;;18.10;81.20;;;;;;5020808;28;20125;-93
2022/10/01 12:54:20;;;;;;;5.85;1.23;;;17.80;82.70;;;;;;5060299;28;20013;-95
2022/10/01 12:57:23;;;;;;;5.40;0.88;;;17.60;83.50;;;;;;4994864;28;20031;-93
2022/10/01 13:00:10;;;;;;;6.57;1.20;;;17.40;84.20;;;;;;4967303;28;20099;-95
2022/10/01 13:03:11;;;;;;;7.00;1.55;;;17.30;84.00;;;;;;4997302;28;20045;-94
2022/10/01 13:05:47;;;;;;;5.88;0.77;;;17.00;83.10;;;;;;4989784;28;20065;-95
2022/10/01 13:08:52;;;;;;;12.13;1.33;;;17.00;83.50;;;;;;5012508;28;20027;-95
2022/10/01 13:11:41;;;;;;;4.13;1.00;;;16.90;83.80;;;;;;4983703;28;20039;-95
2022/10/01 13:14:35;;;;;;;4.28;0.77;;;16.80;83.90;;;;;;5004268;28;20484;-94
2022/10/01 13:17:41;;;;;;;7.15;1.63;;;16.80;84.00;;;;;;4992606;28;20049;-95
2022/10/01 13:20:47;;;;;;;10.98;1.33;;;16.70;84.20;;;;;;4997053;28;20049;-95
2022/10/01 13:23:39;;;;;;;4.40;1.00;;;16.70;84.70;;;;;;4977093;29;20024;-96
2022/10/01 13:26:26;;;;;;;6.95;1.42;;;17.10;85.00;;;;;;4966531;28;20125;-94
2022/10/01 13:29:21;;;;;;;8.57;1.73;;;17.70;84.40;;;;;;4954155;29;20024;-95
2022/10/01 13:32:29;;;;;;;5.40;1.45;;;18.20;82.90;;;;;;5012623;28;20042;-96
2022/10/01 13:35:00;;;;;;;3.80;0.98;;;18.80;81.80;;;;;;5036362;28;20085;-96
2022/10/01 13:37:37;;;;;;;9.85;1.08;;;19.40;80.80;;;;;;5021619;28;20050;-93
2022/10/01 13:40:21;;;;;;;9.85;1.27;;;19.90;79.70;;;;;;5010116;28;20097;-95
2022/10/01 13:42:53;;;;;;;5.35;1.15;;;20.40;78.50;;;;;;5013627;28;20034;-94
2022/10/01 13:45:28;;;;;;;5.85;1.00;;;20.70;76.90;;;;;;5020894;28;20022;-95
2022/10/01 13:48:19;;;;;;;5.22;1.40;;;20.70;75.60;;;;;;5007152;28;20061;-95
2022/10/01 13:51:07;;;;;;;8.13;1.30;;;20.50;75.00;;;;;;5011663;28;20049;-94
2022/10/01 13:53:43;;;;;;;6.68;1.42;;;20.00;75.50;;;;;;5022481;28;20065;-92
2022/10/01 13:56:33;;;;;;;7.10;1.13;;;19.60;76.90;;;;;;5017819;28;20041;-95
2022/10/01 13:59:01;;;;;;;;;;;19.20;77.90;;;;;;5039410;28;20033;-95
2022/10/01 14:01:42;;;;;;;10.05;2.05;;;19.10;79.30;;;;;;5046249;28;19909;-95